Time;durP1;ratioP1;P1;durP2;ratioP2;P2;SDS_P1;SDS_P2;PMS_P1;PMS_P2;Temp;Humidity;BMP_temperature;BMP_pressure;BME280_temperature;BME280_humidity;BME280_pressure;Samples;Min_cycle;Max_cycle;Signal;HPM_P1;HPM_P2
2021/03/23 00:01:01;;;;;;;0.00;0.00;;;;;;;;;;5015423;28;20275;-62
2021/03/23 00:03:32;;;;;;;0.20;0.20;;;;;;;;;;5013851;28;20184;-62
2021/03/23 00:05:59;;;;;;;1.80;1.20;;;;;;;;;;5017353;28;20263;-62
2021/03/23 00:08:28;;;;;;;0.00;0.00;;;;;;;;;;5013315;28;20203;-63
2021/03/23 00:10:55;;;;;;;0.10;0.10;;;;;;;;;;5014343;28;20180;-64
2021/03/23 00:13:22;;;;;;;0.00;0.00;;;;;;;;;;5014644;28;20208;-63
2021/03/23 00:15:49;;;;;;;0.60;0.13;;;;;;;;;;5013465;28;20945;-62
2021/03/23 00:18:16;;;;;;;0.13;0.13;;;;;;;;;;5019136;28;20316;-63
2021/03/23 00:20:43;;;;;;;0.00;0.00;;;;;;;;;;5019042;28;20199;-62
2021/03/23 00:23:10;;;;;;;0.00;0.00;;;;;;;;;;5013571;28;20231;-63
2021/03/23 00:25:37;;;;;;;0.53;0.53;;;;;;;;;;5014102;28;20921;-62
2021/03/23 00:28:04;;;;;;;0.10;0.10;;;;;;;;;;5001860;28;20198;-63
2021/03/23 00:30:31;;;;;;;0.00;0.00;;;;;;;;;;5002517;28;20208;-62
2021/03/23 00:32:59;;;;;;;0.20;0.20;;;;;;;;;;5017294;28;20245;-62
2021/03/23 00:35:25;;;;;;;0.20;0.20;;;;;;;;;;5003611;28;20183;-62
2021/03/23 00:37:53;;;;;;;0.10;0.10;;;;;;;;;;5006083;28;20240;-62
2021/03/23 00:40:23;;;;;;;1.23;1.00;;;;;;;;;;5015236;28;20757;-62
2021/03/23 00:42:49;;;;;;;0.67;0.67;;;;;;;;;;5000490;28;20173;-62
2021/03/23 00:45:17;;;;;;;0.30;0.30;;;;;;;;;;5006636;28;20635;-63
2021/03/23 00:47:44;;;;;;;4.87;0.40;;;;;;;;;;5003331;28;20275;-62
2021/03/23 00:50:11;;;;;;;0.33;0.33;;;;;;;;;;5003660;28;20231;-62
2021/03/23 00:52:37;;;;;;;0.20;0.20;;;;;;;;;;5003104;28;20186;-63
2021/03/23 00:55:05;;;;;;;0.10;0.10;;;;;;;;;;5003559;28;20176;-63
2021/03/23 00:57:32;;;;;;;0.40;0.37;;;;;;;;;;5004183;28;20179;-63
2021/03/23 00:59:58;;;;;;;1.37;1.27;;;;;;;;;;5003592;28;20199;-63
2021/03/23 01:02:28;;;;;;;0.00;0.00;;;;;;;;;;5008163;28;20172;-63
2021/03/23 01:04:54;;;;;;;0.00;0.00;;;;;;;;;;5003967;28;20184;-62
2021/03/23 01:07:21;;;;;;;0.00;0.00;;;;;;;;;;5007008;28;20207;-63
2021/03/23 01:09:48;;;;;;;0.07;0.07;;;;;;;;;;5004403;28;20204;-63
2021/03/23 01:12:14;;;;;;;0.00;0.00;;;;;;;;;;5003366;28;20176;-63
2021/03/23 01:14:41;;;;;;;0.30;0.30;;;;;;;;;;5001541;28;20164;-63
2021/03/23 01:17:08;;;;;;;0.00;0.00;;;;;;;;;;5005541;28;20176;-63
2021/03/23 01:19:35;;;;;;;0.67;0.67;;;;;;;;;;4999196;28;20235;-62
2021/03/23 01:22:02;;;;;;;0.13;0.13;;;;;;;;;;5011269;28;20192;-62
2021/03/23 01:24:29;;;;;;;0.10;0.10;;;;;;;;;;5016639;28;21946;-62
2021/03/23 01:26:55;;;;;;;0.30;0.20;;;;;;;;;;5012927;28;20189;-63
2021/03/23 01:29:22;;;;;;;0.37;0.37;;;;;;;;;;5015492;28;20214;-62
2021/03/23 01:31:48;;;;;;;0.13;0.13;;;;;;;;;;5018100;28;20267;-62
2021/03/23 01:34:15;;;;;;;0.10;0.10;;;;;;;;;;5016279;28;20192;-62
2021/03/23 01:36:44;;;;;;;2.13;0.43;;;;;;;;;;5019465;28;20204;-62
2021/03/23 01:39:11;;;;;;;0.00;0.00;;;;;;;;;;5015069;28;20198;-62
2021/03/23 01:41:37;;;;;;;0.10;0.10;;;;;;;;;;5013888;28;20188;-61
2021/03/23 01:44:04;;;;;;;0.10;0.10;;;;;;;;;;5013394;28;20651;-61
2021/03/23 01:46:40;;;;;;;0.10;0.10;;;;;;;;;;5016884;28;20180;-62
2021/03/23 01:49:09;;;;;;;0.10;0.10;;;;;;;;;;5017609;28;20212;-62
2021/03/23 01:51:35;;;;;;;0.00;0.00;;;;;;;;;;5016989;28;20612;-63
2021/03/23 01:54:13;;;;;;;0.10;0.10;;;;;;;;;;5015265;28;20717;-62
2021/03/23 01:56:40;;;;;;;0.00;0.00;;;;;;;;;;5016272;28;20295;-62
2021/03/23 01:59:07;;;;;;;0.10;0.10;;;;;;;;;;5017810;28;20188;-62
2021/03/23 02:01:33;;;;;;;0.10;0.10;;;;;;;;;;5012792;28;20234;-62
2021/03/23 02:04:00;;;;;;;0.00;0.00;;;;;;;;;;5014820;28;20911;-61
2021/03/23 02:06:33;;;;;;;0.10;0.10;;;;;;;;;;5013804;28;20189;-61
2021/03/23 02:09:00;;;;;;;0.20;0.20;;;;;;;;;;5018899;28;20698;-61
2021/03/23 02:11:29;;;;;;;0.10;0.10;;;;;;;;;;5014169;28;20193;-62
2021/03/23 02:13:56;;;;;;;0.93;0.40;;;;;;;;;;5012494;28;20218;-62
2021/03/23 02:16:23;;;;;;;0.10;0.10;;;;;;;;;;5016448;28;20195;-62
2021/03/23 02:18:51;;;;;;;0.00;0.00;;;;;;;;;;5017136;28;20267;-62
2021/03/23 02:21:20;;;;;;;0.10;0.10;;;;;;;;;;5012244;28;20189;-62
2021/03/23 02:23:51;;;;;;;0.10;0.10;;;;;;;;;;5013865;28;21022;-62
2021/03/23 02:26:23;;;;;;;0.10;0.10;;;;;;;;;;5015259;28;20738;-62
2021/03/23 02:28:59;;;;;;;0.10;0.10;;;;;;;;;;5015750;28;20215;-62
2021/03/23 02:31:28;;;;;;;0.10;0.10;;;;;;;;;;5015167;28;20192;-63
2021/03/23 02:33:55;;;;;;;0.10;0.10;;;;;;;;;;5032324;28;20211;-62
2021/03/23 02:36:22;;;;;;;0.10;0.10;;;;;;;;;;5012816;28;20208;-62
2021/03/23 02:38:49;;;;;;;0.30;0.30;;;;;;;;;;5019158;28;20281;-61
2021/03/23 02:41:15;;;;;;;0.27;0.27;;;;;;;;;;5016926;28;20180;-61
2021/03/23 02:43:42;;;;;;;0.10;0.10;;;;;;;;;;5015498;28;20185;-62
2021/03/23 02:46:09;;;;;;;0.10;0.10;;;;;;;;;;5020053;28;20434;-62
2021/03/23 02:48:35;;;;;;;0.40;0.30;;;;;;;;;;5021528;28;20220;-61
2021/03/23 02:51:02;;;;;;;0.10;0.10;;;;;;;;;;5013458;28;20275;-62
2021/03/23 02:53:29;;;;;;;0.93;0.93;;;;;;;;;;5018347;28;21071;-62
2021/03/23 02:55:55;;;;;;;0.87;0.30;;;;;;;;;;5019630;28;20856;-62
2021/03/23 02:58:22;;;;;;;0.30;0.30;;;;;;;;;;5022393;28;20230;-61
2021/03/23 03:00:48;;;;;;;0.10;0.10;;;;;;;;;;5021003;28;20254;-61
2021/03/23 03:03:15;;;;;;;0.10;0.10;;;;;;;;;;5020447;28;20984;-62
2021/03/23 03:05:42;;;;;;;0.10;0.10;;;;;;;;;;5019973;28;20207;-62
2021/03/23 03:08:09;;;;;;;0.10;0.10;;;;;;;;;;5019300;28;20184;-62
2021/03/23 03:10:36;;;;;;;0.10;0.10;;;;;;;;;;5019787;28;20315;-62
2021/03/23 03:13:04;;;;;;;0.10;0.10;;;;;;;;;;5016737;28;20200;-62
2021/03/23 03:15:31;;;;;;;0.10;0.10;;;;;;;;;;5018228;28;20188;-62
2021/03/23 03:17:58;;;;;;;0.10;0.10;;;;;;;;;;5015503;28;20216;-62
2021/03/23 03:20:25;;;;;;;0.10;0.10;;;;;;;;;;5020420;28;20185;-62
2021/03/23 03:22:51;;;;;;;0.10;0.10;;;;;;;;;;5015983;28;20176;-62
2021/03/23 03:25:19;;;;;;;0.10;0.10;;;;;;;;;;5020119;28;20691;-61
2021/03/23 03:27:46;;;;;;;1.23;1.07;;;;;;;;;;5015087;28;20195;-61
2021/03/23 03:30:19;;;;;;;0.10;0.10;;;;;;;;;;5017103;28;20220;-61
2021/03/23 03:32:46;;;;;;;0.10;0.10;;;;;;;;;;5018999;28;20180;-61
2021/03/23 03:35:12;;;;;;;1.33;0.30;;;;;;;;;;5019293;28;20581;-61
2021/03/23 03:37:42;;;;;;;6.33;0.30;;;;;;;;;;5021132;28;20192;-61
2021/03/23 03:40:09;;;;;;;0.10;0.10;;;;;;;;;;5021025;28;20196;-61
2021/03/23 03:42:36;;;;;;;0.10;0.10;;;;;;;;;;5020744;28;20216;-61
2021/03/23 03:45:04;;;;;;;1.80;0.40;;;;;;;;;;5019225;28;20865;-61
2021/03/23 03:47:30;;;;;;;1.27;1.17;;;;;;;;;;5024664;23;21951;-66
2021/03/23 03:49:57;;;;;;;0.10;0.10;;;;;;;;;;4999108;28;20223;-66
2021/03/23 03:52:24;;;;;;;0.10;0.10;;;;;;;;;;4999613;28;20212;-66
2021/03/23 03:54:50;;;;;;;0.10;0.10;;;;;;;;;;4995385;28;20457;-66
2021/03/23 03:57:18;;;;;;;0.30;0.20;;;;;;;;;;4991830;28;20209;-65
2021/03/23 03:59:45;;;;;;;0.10;0.10;;;;;;;;;;4996547;28;20224;-65
2021/03/23 04:02:12;;;;;;;0.30;0.30;;;;;;;;;;4994298;28;20207;-65
2021/03/23 04:04:38;;;;;;;0.10;0.10;;;;;;;;;;4997989;28;20192;-65
2021/03/23 04:07:05;;;;;;;0.10;0.10;;;;;;;;;;4999112;28;20266;-65
2021/03/23 04:09:32;;;;;;;0.00;0.00;;;;;;;;;;5002018;28;20215;-65
2021/03/23 04:11:59;;;;;;;0.00;0.00;;;;;;;;;;5000910;28;20369;-65
2021/03/23 04:14:25;;;;;;;0.10;0.10;;;;;;;;;;4999239;28;20282;-65
2021/03/23 04:16:52;;;;;;;0.10;0.10;;;;;;;;;;4996275;28;20352;-65
2021/03/23 04:19:18;;;;;;;0.10;0.10;;;;;;;;;;4999695;28;20185;-65
2021/03/23 04:21:45;;;;;;;0.10;0.10;;;;;;;;;;4999947;28;20184;-67
2021/03/23 04:24:11;;;;;;;0.10;0.10;;;;;;;;;;4998337;28;20192;-64
2021/03/23 04:26:38;;;;;;;0.10;0.10;;;;;;;;;;4999175;28;20228;-64
2021/03/23 04:29:04;;;;;;;0.10;0.10;;;;;;;;;;4997564;28;20211;-64
2021/03/23 04:31:42;;;;;;;0.00;0.00;;;;;;;;;;4998102;28;20198;-64
2021/03/23 04:34:10;;;;;;;0.10;0.10;;;;;;;;;;4998244;28;20215;-64
2021/03/23 04:36:36;;;;;;;1.33;1.33;;;;;;;;;;4999029;28;21017;-64
2021/03/23 04:39:08;;;;;;;0.10;0.10;;;;;;;;;;4998808;28;20197;-64
2021/03/23 04:41:34;;;;;;;0.10;0.10;;;;;;;;;;4997974;28;20196;-64
2021/03/23 04:44:01;;;;;;;0.50;0.50;;;;;;;;;;4997726;28;20794;-64
2021/03/23 04:46:28;;;;;;;0.70;0.70;;;;;;;;;;4998582;28;20185;-64
2021/03/23 04:48:55;;;;;;;1.03;0.50;;;;;;;;;;4997744;28;20235;-64
2021/03/23 04:51:23;;;;;;;0.10;0.10;;;;;;;;;;4999194;28;20201;-64
2021/03/23 04:53:49;;;;;;;0.03;0.03;;;;;;;;;;4997426;28;20291;-64
2021/03/23 04:56:21;;;;;;;0.10;0.10;;;;;;;;;;4996384;28;20177;-64
2021/03/23 04:58:48;;;;;;;0.20;0.20;;;;;;;;;;4998693;28;20645;-64
2021/03/23 05:01:14;;;;;;;0.20;0.20;;;;;;;;;;4993686;28;20534;-64
2021/03/23 05:03:41;;;;;;;0.30;0.30;;;;;;;;;;4993270;28;20256;-64
2021/03/23 05:06:09;;;;;;;0.77;0.77;;;;;;;;;;4996223;28;20215;-64
2021/03/23 05:08:37;;;;;;;1.03;0.87;;;;;;;;;;4996824;28;20219;-64
2021/03/23 05:11:04;;;;;;;0.20;0.20;;;;;;;;;;5002410;28;20188;-64
2021/03/23 05:13:31;;;;;;;0.10;0.10;;;;;;;;;;4997381;28;20199;-65
2021/03/23 05:15:57;;;;;;;0.97;0.73;;;;;;;;;;4994236;28;20189;-66
2021/03/23 05:18:24;;;;;;;0.20;0.20;;;;;;;;;;4996300;28;20192;-65
2021/03/23 05:20:51;;;;;;;0.00;0.00;;;;;;;;;;4997880;28;20222;-65
2021/03/23 05:23:18;;;;;;;0.10;0.10;;;;;;;;;;4994427;28;20197;-65
2021/03/23 05:25:44;;;;;;;0.10;0.10;;;;;;;;;;4996284;28;20196;-66
2021/03/23 05:28:11;;;;;;;0.10;0.10;;;;;;;;;;4994360;28;20664;-65
2021/03/23 05:30:38;;;;;;;0.10;0.10;;;;;;;;;;4994987;28;20192;-65
2021/03/23 05:33:05;;;;;;;0.10;0.10;;;;;;;;;;4993276;28;20180;-65
2021/03/23 05:35:32;;;;;;;0.20;0.20;;;;;;;;;;4993706;28;20320;-66
2021/03/23 05:37:59;;;;;;;3.47;0.73;;;;;;;;;;4993836;28;20203;-66
2021/03/23 05:40:27;;;;;;;0.20;0.20;;;;;;;;;;4995673;28;20185;-65
2021/03/23 05:43:05;;;;;;;0.10;0.10;;;;;;;;;;4993822;28;20271;-65
2021/03/23 05:45:33;;;;;;;0.37;0.37;;;;;;;;;;4994091;28;20239;-65
2021/03/23 05:48:15;;;;;;;0.30;0.30;;;;;;;;;;4994355;28;20228;-65
2021/03/23 05:50:44;;;;;;;0.10;0.10;;;;;;;;;;4994310;28;20794;-65
2021/03/23 05:53:17;;;;;;;0.40;0.23;;;;;;;;;;4994458;28;20181;-65
2021/03/23 05:55:45;;;;;;;0.10;0.10;;;;;;;;;;4995246;28;20339;-65
2021/03/23 05:58:17;;;;;;;0.10;0.10;;;;;;;;;;4995864;28;20176;-65
2021/03/23 06:00:49;;;;;;;0.10;0.10;;;;;;;;;;4995260;28;20210;-65
2021/03/23 06:03:15;;;;;;;1.80;0.30;;;;;;;;;;4998115;28;20185;-65
2021/03/23 06:05:44;;;;;;;0.10;0.10;;;;;;;;;;4998167;28;20183;-65
2021/03/23 06:08:26;;;;;;;0.10;0.10;;;;;;;;;;4998291;28;20574;-65
2021/03/23 06:11:02;;;;;;;0.10;0.10;;;;;;;;;;5004628;28;20196;-65
2021/03/23 06:13:34;;;;;;;0.10;0.10;;;;;;;;;;4998719;28;20187;-65
2021/03/23 06:16:23;;;;;;;0.37;0.37;;;;;;;;;;4995200;28;20199;-65
2021/03/23 06:18:58;;;;;;;1.80;0.70;;;;;;;;;;4971651;28;20711;-65
2021/03/23 06:21:28;;;;;;;0.10;0.10;;;;;;;;;;4998984;28;20188;-65
2021/03/23 06:24:00;;;;;;;0.40;0.40;;;;;;;;;;4998835;28;20227;-65
2021/03/23 13:11:46;;;;;;;0.00;0.00;;;;;;;;;;5084302;27;20602;-61
2021/03/23 13:14:21;;;;;;;0.43;0.20;;;;;;;;;;5076079;28;20256;-61
2021/03/23 13:16:48;;;;;;;0.00;0.00;;;;;;;;;;5103076;28;20558;-61
2021/03/23 13:19:14;;;;;;;0.57;0.50;;;;;;;;;;5085589;28;20466;-61
2021/03/23 13:21:44;;;;;;;0.00;0.00;;;;;;;;;;5082120;28;20201;-61
2021/03/23 13:24:14;;;;;;;0.10;0.03;;;;;;;;;;5078304;28;20181;-61
2021/03/23 13:26:40;;;;;;;0.87;0.87;;;;;;;;;;5076947;28;20552;-62
2021/03/23 13:29:08;;;;;;;0.00;0.00;;;;;;;;;;5104585;28;20288;-61
2021/03/23 13:31:38;;;;;;;0.00;0.00;;;;;;;;;;5103440;28;20211;-61
2021/03/23 13:34:06;;;;;;;0.00;0.00;;;;;;;;;;5106736;28;20181;-61
2021/03/23 13:36:32;;;;;;;0.00;0.00;;;;;;;;;;5106232;28;20695;-61
2021/03/23 13:39:00;;;;;;;0.77;0.47;;;;;;;;;;5105213;28;20187;-61
2021/03/23 13:41:26;;;;;;;0.97;0.40;;;;;;;;;;5108574;28;20216;-61
2021/03/23 13:44:00;;;;;;;0.00;0.00;;;;;;;;;;5108636;28;20669;-61
2021/03/23 13:46:31;;;;;;;1.00;0.13;;;;;;;;;;5095962;28;20186;-60
2021/03/23 13:48:58;;;;;;;0.00;0.00;;;;;;;;;;5075646;28;20216;-61
2021/03/23 13:51:25;;;;;;;0.00;0.00;;;;;;;;;;5075987;28;20220;-61
2021/03/23 13:53:51;;;;;;;1.33;0.10;;;;;;;;;;5075213;28;20193;-61
2021/03/23 13:56:18;;;;;;;0.00;0.00;;;;;;;;;;5075460;28;20910;-61
2021/03/23 13:58:44;;;;;;;0.63;0.03;;;;;;;;;;5075615;28;20867;-61
2021/03/23 14:01:14;;;;;;;0.77;0.47;;;;;;;;;;5075214;28;20187;-61
2021/03/23 14:03:41;;;;;;;0.00;0.00;;;;;;;;;;5075271;28;20183;-61
2021/03/23 14:06:14;;;;;;;2.10;0.50;;;;;;;;;;5084191;28;20740;-61
2021/03/23 14:08:41;;;;;;;0.00;0.00;;;;;;;;;;5094433;28;20186;-61
2021/03/23 14:11:11;;;;;;;0.00;0.00;;;;;;;;;;5085186;28;20257;-61
2021/03/23 14:13:38;;;;;;;0.00;0.00;;;;;;;;;;5085603;28;20185;-61
2021/03/23 14:16:05;;;;;;;1.50;1.40;;;;;;;;;;5094692;28;20216;-61
2021/03/23 14:18:31;;;;;;;0.10;0.10;;;;;;;;;;5094984;28;20749;-61
2021/03/23 14:20:58;;;;;;;2.60;0.60;;;;;;;;;;5093243;28;20188;-61
2021/03/23 14:23:41;;;;;;;0.00;0.00;;;;;;;;;;5080531;28;20220;-60
2021/03/23 14:26:08;;;;;;;0.40;0.20;;;;;;;;;;5080586;28;20193;-61
2021/03/23 14:28:39;;;;;;;0.00;0.00;;;;;;;;;;5080585;28;20194;-60
2021/03/23 14:31:07;;;;;;;0.17;0.17;;;;;;;;;;5080572;28;20277;-60
2021/03/23 14:33:34;;;;;;;5.83;0.40;;;;;;;;;;5080525;28;20551;-60
2021/03/23 14:36:01;;;;;;;2.73;0.47;;;;;;;;;;5083220;28;20282;-60
2021/03/23 14:38:30;;;;;;;0.00;0.00;;;;;;;;;;5061606;28;20824;-60
2021/03/23 14:40:57;;;;;;;0.00;0.00;;;;;;;;;;5061178;28;20206;-61
2021/03/23 14:43:25;;;;;;;0.00;0.00;;;;;;;;;;5061110;28;20327;-61
2021/03/23 14:45:52;;;;;;;0.00;0.00;;;;;;;;;;5060989;28;20204;-60
2021/03/23 14:48:21;;;;;;;0.07;0.07;;;;;;;;;;5072919;28;20184;-60
2021/03/23 14:50:47;;;;;;;1.20;1.03;;;;;;;;;;5080446;28;20854;-61
2021/03/23 14:53:16;;;;;;;0.67;0.67;;;;;;;;;;5080464;28;20185;-61
2021/03/23 14:55:43;;;;;;;0.20;0.00;;;;;;;;;;5069121;28;20179;-61
2021/03/23 14:58:12;;;;;;;1.87;0.47;;;;;;;;;;5060884;28;21024;-62
2021/03/23 15:00:39;;;;;;;0.37;0.37;;;;;;;;;;5075399;28;20177;-61
2021/03/23 15:03:07;;;;;;;0.00;0.00;;;;;;;;;;5090158;28;20186;-61
2021/03/23 15:05:34;;;;;;;0.10;0.10;;;;;;;;;;5065572;28;20273;-61
2021/03/23 15:08:02;;;;;;;0.00;0.00;;;;;;;;;;5060756;28;20266;-61
2021/03/23 15:10:31;;;;;;;0.00;0.00;;;;;;;;;;5068665;28;20226;-61
2021/03/23 15:12:58;;;;;;;0.00;0.00;;;;;;;;;;5071787;28;20172;-61
2021/03/23 15:15:26;;;;;;;0.23;0.23;;;;;;;;;;5067644;28;20737;-61
2021/03/23 15:17:53;;;;;;;0.20;0.20;;;;;;;;;;5061742;28;20185;-61
2021/03/23 15:20:21;;;;;;;0.00;0.00;;;;;;;;;;5065018;28;20177;-61
2021/03/23 15:22:48;;;;;;;0.13;0.00;;;;;;;;;;5070638;28;20239;-60
2021/03/23 15:25:18;;;;;;;0.83;0.73;;;;;;;;;;5072279;28;20962;-61
2021/03/23 15:27:46;;;;;;;0.00;0.00;;;;;;;;;;5066338;28;20169;-61
2021/03/23 15:30:14;;;;;;;0.20;0.20;;;;;;;;;;5071722;28;20289;-61
2021/03/23 15:32:40;;;;;;;0.17;0.17;;;;;;;;;;5065474;28;20225;-61
2021/03/23 15:35:07;;;;;;;0.00;0.00;;;;;;;;;;5067194;28;20247;-61
2021/03/23 15:37:34;;;;;;;0.20;0.20;;;;;;;;;;5067736;28;20697;-61
2021/03/23 15:40:01;;;;;;;0.73;0.30;;;;;;;;;;5068241;28;20198;-61
2021/03/23 15:42:27;;;;;;;2.33;1.03;;;;;;;;;;5062887;28;20273;-61
2021/03/23 15:44:55;;;;;;;0.20;0.20;;;;;;;;;;5059186;28;20188;-61
2021/03/23 15:47:22;;;;;;;0.20;0.20;;;;;;;;;;5060649;28;20200;-61
2021/03/23 15:49:48;;;;;;;1.50;0.37;;;;;;;;;;5066959;28;20647;-61
2021/03/23 15:52:22;;;;;;;0.60;0.60;;;;;;;;;;5059563;28;20599;-61
2021/03/23 15:54:48;;;;;;;0.00;0.00;;;;;;;;;;5061421;28;20183;-61
2021/03/23 15:57:15;;;;;;;0.60;0.47;;;;;;;;;;5059871;28;20184;-61
2021/03/23 15:59:42;;;;;;;0.30;0.20;;;;;;;;;;5061952;28;20745;-61
2021/03/23 16:02:12;;;;;;;0.00;0.00;;;;;;;;;;5063379;28;20410;-61
2021/03/23 16:04:38;;;;;;;0.60;0.40;;;;;;;;;;5063227;28;20791;-61
2021/03/23 16:07:09;;;;;;;0.27;0.23;;;;;;;;;;5069023;28;20179;-61
2021/03/23 16:09:36;;;;;;;0.00;0.00;;;;;;;;;;5055861;28;20197;-61
2021/03/23 16:12:05;;;;;;;0.00;0.00;;;;;;;;;;5057372;28;21044;-61
2021/03/23 16:14:32;;;;;;;0.67;0.30;;;;;;;;;;5055916;28;20200;-61
2021/03/23 16:16:59;;;;;;;0.33;0.33;;;;;;;;;;5060419;28;20183;-60
2021/03/23 16:19:26;;;;;;;1.77;1.70;;;;;;;;;;5056279;28;20570;-61
2021/03/23 16:21:52;;;;;;;1.60;1.23;;;;;;;;;;5056231;28;20179;-63
2021/03/23 16:24:21;;;;;;;2.13;0.20;;;;;;;;;;5061778;28;20556;-61
2021/03/23 16:26:47;;;;;;;0.00;0.00;;;;;;;;;;5061226;28;20218;-61
2021/03/23 16:29:14;;;;;;;0.03;0.00;;;;;;;;;;5055477;28;20277;-62
2021/03/23 16:31:50;;;;;;;0.40;0.40;;;;;;;;;;5057740;28;21865;-61
2021/03/23 16:34:27;;;;;;;0.37;0.10;;;;;;;;;;5056259;28;21296;-61
2021/03/23 16:36:54;;;;;;;0.10;0.10;;;;;;;;;;5060092;28;20275;-61
2021/03/23 16:39:22;;;;;;;0.03;0.03;;;;;;;;;;5058268;28;20659;-61
2021/03/23 16:41:57;;;;;;;0.00;0.00;;;;;;;;;;5064280;28;20436;-61
2021/03/23 16:44:30;;;;;;;0.00;0.00;;;;;;;;;;5055498;28;20688;-61
2021/03/23 16:46:57;;;;;;;0.10;0.10;;;;;;;;;;5060900;28;20181;-61
2021/03/23 16:49:24;;;;;;;4.90;0.27;;;;;;;;;;5064829;28;20209;-61
2021/03/23 16:51:54;;;;;;;0.57;0.27;;;;;;;;;;5066456;28;20200;-61
2021/03/23 16:54:22;;;;;;;0.10;0.03;;;;;;;;;;5068174;28;20820;-61
2021/03/23 16:56:49;;;;;;;0.00;0.00;;;;;;;;;;5060274;28;20178;-61
2021/03/23 16:59:15;;;;;;;0.27;0.27;;;;;;;;;;5063302;28;20190;-61
2021/03/23 17:01:42;;;;;;;0.47;0.20;;;;;;;;;;5062328;28;20289;-62
2021/03/23 17:04:09;;;;;;;0.00;0.00;;;;;;;;;;5067164;28;20249;-61
2021/03/23 17:06:35;;;;;;;0.00;0.00;;;;;;;;;;5062701;28;20758;-61
2021/03/23 17:09:02;;;;;;;0.30;0.20;;;;;;;;;;5070985;28;20184;-60
2021/03/23 17:11:29;;;;;;;0.20;0.20;;;;;;;;;;5068359;28;20223;-60
2021/03/23 17:13:55;;;;;;;0.37;0.17;;;;;;;;;;5071165;28;20174;-61
2021/03/23 17:16:22;;;;;;;0.10;0.10;;;;;;;;;;5065953;28;20654;-60
2021/03/23 17:18:48;;;;;;;0.13;0.13;;;;;;;;;;5068587;28;20185;-61
2021/03/23 17:21:15;;;;;;;0.30;0.30;;;;;;;;;;5082372;28;20593;-61
2021/03/23 17:23:41;;;;;;;0.60;0.20;;;;;;;;;;5064487;28;20193;-61
2021/03/23 17:26:09;;;;;;;0.57;0.47;;;;;;;;;;5060563;28;20276;-61
2021/03/23 17:28:36;;;;;;;0.00;0.00;;;;;;;;;;5061237;28;21162;-61
2021/03/23 17:31:05;;;;;;;0.00;0.00;;;;;;;;;;5063345;28;20231;-61
2021/03/23 17:33:34;;;;;;;0.97;0.50;;;;;;;;;;5081446;28;20182;-61
2021/03/23 17:36:01;;;;;;;0.00;0.00;;;;;;;;;;5072595;28;20269;-61
2021/03/23 17:38:28;;;;;;;0.00;0.00;;;;;;;;;;5072938;28;20759;-61
2021/03/23 17:40:55;;;;;;;1.27;0.53;;;;;;;;;;5082642;28;20183;-61
2021/03/23 17:43:23;;;;;;;0.77;0.53;;;;;;;;;;5061589;28;20205;-64
2021/03/23 17:45:51;;;;;;;0.10;0.10;;;;;;;;;;5060946;28;20240;-61
2021/03/23 17:48:18;;;;;;;0.40;0.20;;;;;;;;;;5058550;28;20193;-61
2021/03/23 17:50:46;;;;;;;0.00;0.00;;;;;;;;;;5063431;28;20234;-61
2021/03/23 17:53:14;;;;;;;0.00;0.00;;;;;;;;;;5058139;28;20723;-61
2021/03/23 17:55:40;;;;;;;0.60;0.33;;;;;;;;;;5060222;28;20567;-62
2021/03/23 17:58:07;;;;;;;0.13;0.10;;;;;;;;;;5074437;28;20269;-61
2021/03/23 18:00:34;;;;;;;0.00;0.00;;;;;;;;;;5073906;28;20239;-61
2021/03/23 18:03:01;;;;;;;0.10;0.10;;;;;;;;;;5071222;28;20193;-61
2021/03/23 18:05:29;;;;;;;0.20;0.10;;;;;;;;;;5071620;28;20206;-61
2021/03/23 18:07:57;;;;;;;0.97;0.53;;;;;;;;;;5081789;27;20605;-61
2021/03/23 18:10:25;;;;;;;3.93;0.30;;;;;;;;;;5075578;28;20234;-61
2021/03/23 18:12:52;;;;;;;0.00;0.00;;;;;;;;;;5077185;28;20968;-61
2021/03/23 18:15:20;;;;;;;1.13;1.03;;;;;;;;;;5062184;28;20197;-61
2021/03/23 18:17:47;;;;;;;0.17;0.17;;;;;;;;;;5066589;28;20221;-61
2021/03/23 18:20:15;;;;;;;0.00;0.00;;;;;;;;;;5067697;28;20179;-61
2021/03/23 18:22:42;;;;;;;0.77;0.20;;;;;;;;;;5075532;28;20186;-61
2021/03/23 18:25:10;;;;;;;0.30;0.30;;;;;;;;;;5066764;28;20756;-61
2021/03/23 18:27:37;;;;;;;0.00;0.00;;;;;;;;;;5061862;28;20202;-61
2021/03/23 18:30:04;;;;;;;0.13;0.10;;;;;;;;;;5061006;28;20207;-61
2021/03/23 18:32:31;;;;;;;0.00;0.00;;;;;;;;;;5060986;28;20383;-62
2021/03/23 18:34:57;;;;;;;0.00;0.00;;;;;;;;;;5070026;28;20497;-61
2021/03/23 18:37:24;;;;;;;1.60;1.03;;;;;;;;;;5080274;28;20206;-61
2021/03/23 18:39:51;;;;;;;0.00;0.00;;;;;;;;;;5079911;28;20281;-61
2021/03/23 18:42:19;;;;;;;0.00;0.00;;;;;;;;;;5080202;28;20182;-61
2021/03/23 18:44:46;;;;;;;1.60;0.10;;;;;;;;;;5079851;28;20189;-61
2021/03/23 18:47:13;;;;;;;0.00;0.00;;;;;;;;;;5082715;28;20268;-61
2021/03/23 18:49:39;;;;;;;0.00;0.00;;;;;;;;;;5062830;28;20738;-61
2021/03/23 18:52:06;;;;;;;0.40;0.20;;;;;;;;;;5061197;28;20526;-61
2021/03/23 18:54:33;;;;;;;1.80;1.23;;;;;;;;;;5060627;28;20191;-61
2021/03/23 18:57:00;;;;;;;0.57;0.13;;;;;;;;;;5074619;28;20263;-61
2021/03/23 18:59:26;;;;;;;1.77;0.63;;;;;;;;;;5060892;28;20197;-61
2021/03/23 19:01:53;;;;;;;0.30;0.30;;;;;;;;;;5066735;28;20169;-61
2021/03/23 19:04:19;;;;;;;3.20;1.33;;;;;;;;;;5065707;28;20627;-61
2021/03/23 19:06:46;;;;;;;0.47;0.23;;;;;;;;;;5071189;28;20737;-61
2021/03/23 19:09:12;;;;;;;0.97;0.37;;;;;;;;;;5055883;28;20194;-61
2021/03/23 19:11:39;;;;;;;1.40;0.13;;;;;;;;;;5072368;28;20226;-60
2021/03/23 19:14:06;;;;;;;0.10;0.10;;;;;;;;;;5079767;28;20216;-60
2021/03/23 19:16:32;;;;;;;0.00;0.00;;;;;;;;;;5079909;28;20213;-60
2021/03/23 19:18:59;;;;;;;0.10;0.10;;;;;;;;;;5079888;28;20703;-61
2021/03/23 19:21:25;;;;;;;0.50;0.50;;;;;;;;;;5079514;28;20213;-61
2021/03/23 19:23:52;;;;;;;1.80;0.30;;;;;;;;;;5079478;28;20653;-61
2021/03/23 19:26:18;;;;;;;0.00;0.00;;;;;;;;;;5080223;28;20464;-61
2021/03/23 19:28:45;;;;;;;0.10;0.03;;;;;;;;;;5079841;28;20183;-61
2021/03/23 19:31:13;;;;;;;0.97;0.10;;;;;;;;;;5080168;28;20233;-61
2021/03/23 19:33:41;;;;;;;5.10;2.33;;;;;;;;;;5060139;28;20186;-61
2021/03/23 19:36:08;;;;;;;0.50;0.40;;;;;;;;;;5069658;28;20196;-61
2021/03/23 19:38:40;;;;;;;1.60;0.30;;;;;;;;;;5076915;28;20189;-59
2021/03/23 19:41:09;;;;;;;0.20;0.20;;;;;;;;;;5071659;28;20202;-58
2021/03/23 19:43:38;;;;;;;0.20;0.20;;;;;;;;;;5069820;28;20695;-58
2021/03/23 19:46:04;;;;;;;0.00;0.00;;;;;;;;;;5057287;28;20183;-58
2021/03/23 19:48:31;;;;;;;0.00;0.00;;;;;;;;;;5064828;28;20186;-58
2021/03/23 19:50:58;;;;;;;0.00;0.00;;;;;;;;;;5065925;28;20885;-59
2021/03/23 19:53:25;;;;;;;1.13;1.13;;;;;;;;;;5065667;28;20195;-57
2021/03/23 19:55:51;;;;;;;0.00;0.00;;;;;;;;;;5068047;28;20181;-58
2021/03/23 19:58:19;;;;;;;0.00;0.00;;;;;;;;;;5061569;28;20765;-59
2021/03/23 20:00:50;;;;;;;0.00;0.00;;;;;;;;;;5056812;28;20731;-58
2021/03/23 20:03:19;;;;;;;1.03;0.33;;;;;;;;;;5063688;28;20409;-58
2021/03/23 20:05:46;;;;;;;0.30;0.20;;;;;;;;;;5077325;28;20192;-59
2021/03/23 20:08:14;;;;;;;0.10;0.10;;;;;;;;;;5057488;28;20183;-59
2021/03/23 20:10:42;;;;;;;0.10;0.07;;;;;;;;;;5063749;28;20967;-59
2021/03/23 20:13:10;;;;;;;0.27;0.10;;;;;;;;;;5061141;28;20170;-59
2021/03/23 20:15:38;;;;;;;2.77;0.83;;;;;;;;;;5063098;28;20190;-59
2021/03/23 20:18:05;;;;;;;0.93;0.33;;;;;;;;;;5072779;28;20178;-59
2021/03/23 20:20:33;;;;;;;0.00;0.00;;;;;;;;;;5070317;28;20184;-58
2021/03/23 20:23:00;;;;;;;0.20;0.20;;;;;;;;;;5067519;28;20185;-59
2021/03/23 20:25:28;;;;;;;0.57;0.57;;;;;;;;;;5065157;28;20194;-59
2021/03/23 20:27:54;;;;;;;0.57;0.57;;;;;;;;;;5068564;28;20200;-59
2021/03/23 20:30:22;;;;;;;0.00;0.00;;;;;;;;;;5065945;28;20200;-59
2021/03/23 20:32:49;;;;;;;0.10;0.00;;;;;;;;;;5065598;28;20179;-59
2021/03/23 20:35:34;;;;;;;0.00;0.00;;;;;;;;;;5072803;28;20215;-59
2021/03/23 20:38:00;;;;;;;0.20;0.20;;;;;;;;;;5077678;28;20985;-58
2021/03/23 20:40:27;;;;;;;5.20;0.47;;;;;;;;;;5057682;28;20193;-59
2021/03/23 20:42:54;;;;;;;0.00;0.00;;;;;;;;;;5077041;28;20184;-59
2021/03/23 20:45:22;;;;;;;0.10;0.10;;;;;;;;;;5076399;28;20186;-59
2021/03/23 20:47:48;;;;;;;0.00;0.00;;;;;;;;;;5067406;28;20908;-59
2021/03/23 20:50:20;;;;;;;0.00;0.00;;;;;;;;;;5077157;28;20225;-59
2021/03/23 20:52:49;;;;;;;0.00;0.00;;;;;;;;;;5064290;28;20209;-59
2021/03/23 20:55:16;;;;;;;0.20;0.10;;;;;;;;;;5069848;28;20206;-59
2021/03/23 20:57:46;;;;;;;0.40;0.13;;;;;;;;;;5068882;28;20207;-59
2021/03/23 21:00:15;;;;;;;0.47;0.30;;;;;;;;;;5057181;28;20193;-59
2021/03/23 21:02:42;;;;;;;0.10;0.10;;;;;;;;;;5059553;28;20753;-59
2021/03/23 21:05:10;;;;;;;1.07;0.30;;;;;;;;;;5069304;28;20182;-59
2021/03/23 21:07:36;;;;;;;0.00;0.00;;;;;;;;;;5078865;28;20772;-59
2021/03/23 21:10:03;;;;;;;0.20;0.10;;;;;;;;;;5071152;28;20565;-59
2021/03/23 21:12:29;;;;;;;0.00;0.00;;;;;;;;;;5070502;28;20189;-59
2021/03/23 21:14:56;;;;;;;1.03;0.40;;;;;;;;;;5065982;28;20180;-60
2021/03/23 21:17:22;;;;;;;0.10;0.10;;;;;;;;;;5064295;28;20199;-59
2021/03/23 21:19:50;;;;;;;0.53;0.53;;;;;;;;;;5059822;28;20440;-59
2021/03/23 21:22:16;;;;;;;0.00;0.00;;;;;;;;;;5071018;28;20666;-60
2021/03/23 21:24:43;;;;;;;5.93;0.87;;;;;;;;;;5063226;28;20182;-59
2021/03/23 21:27:10;;;;;;;0.30;0.07;;;;;;;;;;5070768;28;20185;-59
2021/03/23 21:29:36;;;;;;;0.00;0.00;;;;;;;;;;5077114;28;20259;-60
2021/03/23 21:32:03;;;;;;;1.03;0.20;;;;;;;;;;5074849;28;20613;-60